Time,TemperatureF,DewpointF,PressureIn,WindDirection,WindDirectionDegrees,WindSpeedMPH,WindSpeedGustMPH,Humidity,HourlyPrecipIn,Conditions,Clouds,dailyrainin,SoftwareType,DateUTC
2013-03-06 00:06:00,34.0,27.0,29.93,NW,321,3.0,19.0,75,0.00,,,1.71,weatherlink.com 1.10,2013-03-06 05:06:00,
2013-03-06 00:21:00,33.9,26.0,29.93,West,260,3.0,15.0,73,0.00,,,0.00,weatherlink.com 1.10,2013-03-06 05:21:00,
2013-03-06 00:36:00,33.6,26.0,29.93,WNW,287,7.0,11.0,75,0.00,,,0.00,weatherlink.com 1.10,2013-03-06 05:36:00,
2013-03-06 00:51:00,33.3,27.0,29.93,West,267,1.0,13.0,77,0.00,,,0.00,weatherlink.com 1.10,2013-03-06 05:51:00,
2013-03-06 01:06:00,33.1,27.0,29.93,ENE,60,5.0,12.0,78,0.00,,,0.00,weatherlink.com 1.10,2013-03-06 06:06:00,
2013-03-06 01:21:00,32.8,27.0,29.93,NW,308,14.0,20.0,78,0.00,,,0.00,weatherlink.com 1.10,2013-03-06 06:21:00,
2013-03-06 01:36:00,31.8,28.0,29.94,WNW,297,8.0,20.0,84,0.00,,,0.00,weatherlink.com 1.10,2013-03-06 06:36:00,
2013-03-06 01:51:00,30.6,29.0,29.94,NW,316,14.0,19.0,92,0.00,,,0.00,weatherlink.com 1.10,2013-03-06 06:51:00,
2013-03-06 02:06:00,30.0,29.0,29.95,West,276,6.0,11.0,94,0.00,,,0.00,weatherlink.com 1.10,2013-03-06 07:06:00,
2013-03-06 02:21:00,29.7,29.0,29.95,NNW,346,0.0,8.0,95,0.00,,,0.00,weatherlink.com 1.10,2013-03-06 07:21:00,
2013-03-06 02:36:00,30.0,29.0,29.94,ENE,60,0.0,7.0,94,0.00,,,0.00,weatherlink.com 1.10,2013-03-06 07:36:00,
2013-03-06 02:51:00,30.0,29.0,29.94,WSW,247,1.0,7.0,94,0.00,,,0.00,weatherlink.com 1.10,2013-03-06 07:51:00,
2013-03-06 03:06:00,29.7,27.0,29.95,WNW,285,2.0,11.0,88,0.00,,,0.00,weatherlink.com 1.10,2013-03-06 08:06:00,
2013-03-06 03:21:00,30.0,25.0,29.95,NW,322,3.0,15.0,80,0.00,,,0.00,weatherlink.com 1.10,2013-03-06 08:21:00,
2013-03-06 03:36:00,30.1,24.0,29.95,WNW,288,12.0,16.0,77,0.00,,,0.00,weatherlink.com 1.10,2013-03-06 08:36:00,
2013-03-06 03:51:00,29.8,24.0,29.95,West,278,6.0,13.0,78,0.00,,,0.00,weatherlink.com 1.10,2013-03-06 08:51:00,
2013-03-06 04:06:00,29.5,24.0,29.95,WNW,295,14.0,17.0,80,0.00,,,0.00,weatherlink.com 1.10,2013-03-06 09:06:00,
2013-03-06 04:21:00,29.1,25.0,29.96,West,276,15.0,17.0,83,0.00,,,0.00,weatherlink.com 1.10,2013-03-06 09:21:00,
2013-03-06 04:36:00,28.8,25.0,29.97,SW,219,8.0,15.0,86,0.00,,,0.00,weatherlink.com 1.10,2013-03-06 09:36:00,
2013-03-06 04:51:00,28.4,26.0,29.97,WSW,257,8.0,17.0,89,0.00,,,0.00,weatherlink.com 1.10,2013-03-06 09:51:00,
2013-03-06 05:06:00,28.5,26.0,29.98,NW,311,6.0,18.0,89,0.00,,,0.00,weatherlink.com 1.10,2013-03-06 10:06:00,
2013-03-06 05:21:00,28.5,26.0,29.98,West,262,10.0,16.0,90,0.00,,,0.00,weatherlink.com 1.10,2013-03-06 10:21:00,
2013-03-06 05:36:00,28.4,26.0,29.98,WNW,283,11.0,14.0,91,0.00,,,0.00,weatherlink.com 1.10,2013-03-06 10:36:00,
2013-03-06 05:51:00,28.5,26.0,29.99,WNW,286,13.0,16.0,91,0.00,,,0.00,weatherlink.com 1.10,2013-03-06 10:51:00,
2013-03-06 06:06:00,28.5,26.0,30.00,WNW,299,10.0,17.0,91,0.00,,,0.00,weatherlink.com 1.10,2013-03-06 11:06:00,
2013-03-06 06:21:00,28.4,27.0,30.00,WNW,294,7.0,15.0,93,0.00,,,0.00,weatherlink.com 1.10,2013-03-06 11:21:00,
2013-03-06 06:37:00,28.5,27.0,30.01,WNW,287,11.0,15.0,93,0.00,,,0.00,weatherlink.com 1.10,2013-03-06 11:37:00,
2013-03-06 06:52:00,28.5,27.0,30.02,WSW,254,11.0,14.0,93,0.00,,,0.00,weatherlink.com 1.10,2013-03-06 11:52:00,
2013-03-06 07:07:00,28.5,27.0,30.02,WNW,297,15.0,15.0,93,0.00,,,0.00,weatherlink.com 1.10,2013-03-06 12:07:00,
2013-03-06 07:22:00,28.6,27.0,30.03,SW,229,6.0,18.0,92,0.00,,,0.00,weatherlink.com 1.10,2013-03-06 12:22:00,
2013-03-06 07:52:00,28.6,27.0,30.04,WNW,295,14.0,16.0,94,0.00,,,0.00,weatherlink.com 1.10,2013-03-06 12:52:00,
2013-03-06 08:07:00,28.6,27.0,30.05,West,265,14.0,17.0,93,0.00,,,0.00,weatherlink.com 1.10,2013-03-06 13:07:00,
2013-03-06 08:22:00,28.7,27.0,30.07,WSW,257,11.0,13.0,94,0.00,,,0.00,weatherlink.com 1.10,2013-03-06 13:22:00,
2013-03-06 08:37:00,28.9,27.0,30.08,WNW,282,4.0,15.0,93,0.00,,,0.00,weatherlink.com 1.10,2013-03-06 13:37:00,
2013-03-06 08:52:00,28.9,27.0,30.10,NW,316,9.0,13.0,94,0.00,,,0.00,weatherlink.com 1.10,2013-03-06 13:52:00,
2013-03-06 09:07:00,28.9,27.0,30.11,West,265,9.0,12.0,94,0.00,,,0.00,weatherlink.com 1.10,2013-03-06 14:07:00,
2013-03-06 09:23:00,29.0,28.0,30.12,WSW,255,3.0,14.0,94,0.00,,,0.00,weatherlink.com 1.10,2013-03-06 14:23:00,
2013-03-06 09:37:00,29.1,28.0,30.12,West,268,10.0,12.0,94,0.00,,,0.00,weatherlink.com 1.10,2013-03-06 14:37:00,
2013-03-06 09:54:00,29.3,28.0,30.14,West,279,9.0,13.0,94,0.00,,,0.00,weatherlink.com 1.10,2013-03-06 14:54:00,
2013-03-06 10:07:00,29.4,28.0,30.15,WSW,237,6.0,11.0,93,0.00,,,0.00,weatherlink.com 1.10,2013-03-06 15:07:00,
2013-03-06 10:22:00,29.5,28.0,30.15,WNW,290,7.0,12.0,93,0.00,,,0.00,weatherlink.com 1.10,2013-03-06 15:22:00,
2013-03-06 10:37:00,29.6,28.0,30.16,WNW,303,4.0,12.0,94,0.00,,,0.00,weatherlink.com 1.10,2013-03-06 15:37:00,
2013-03-06 10:52:00,29.7,28.0,30.16,WNW,287,7.0,13.0,94,0.00,,,0.00,weatherlink.com 1.10,2013-03-06 15:52:00,
2013-03-06 11:07:00,29.9,28.0,30.17,NW,313,7.0,13.0,93,0.00,,,0.00,weatherlink.com 1.10,2013-03-06 16:07:00,
2013-03-06 11:22:00,30.2,29.0,30.18,West,271,6.0,11.0,93,0.00,,,0.00,weatherlink.com 1.10,2013-03-06 16:22:00,
2013-03-06 11:37:00,30.5,29.0,30.18,West,266,9.0,11.0,92,0.00,,,0.00,weatherlink.com 1.10,2013-03-06 16:37:00,
2013-03-06 11:52:00,30.6,28.0,30.19,NW,313,3.0,9.0,91,0.00,,,0.00,weatherlink.com 1.10,2013-03-06 16:52:00,
2013-03-06 12:07:00,30.7,28.0,30.20,WNW,291,5.0,12.0,91,0.00,,,0.00,weatherlink.com 1.10,2013-03-06 17:07:00,
2013-03-06 12:22:00,31.0,29.0,30.20,WNW,300,7.0,11.0,90,0.00,,,0.00,weatherlink.com 1.10,2013-03-06 17:22:00,
2013-03-06 12:37:00,31.6,29.0,30.21,West,268,4.0,6.0,88,0.00,,,0.00,weatherlink.com 1.10,2013-03-06 17:37:00,
2013-03-06 12:52:00,32.1,28.0,30.21,East,97,0.0,3.0,84,0.00,,,0.00,weatherlink.com 1.10,2013-03-06 17:52:00,
2013-03-06 13:07:00,32.6,28.0,30.21,East,92,0.0,5.0,84,0.00,,,0.00,weatherlink.com 1.10,2013-03-06 18:07:00,
2013-03-06 13:22:00,32.9,28.0,30.21,NW,315,5.0,7.0,81,0.00,,,0.00,weatherlink.com 1.10,2013-03-06 18:22:00,
2013-03-06 13:37:00,33.1,29.0,30.21,NW,320,1.0,8.0,83,0.00,,,0.00,weatherlink.com 1.10,2013-03-06 18:37:00,
2013-03-06 13:52:00,33.3,28.0,30.21,ESE,123,0.0,9.0,80,0.00,,,0.00,weatherlink.com 1.10,2013-03-06 18:52:00,
2013-03-06 14:07:00,33.3,28.0,30.21,WSW,252,2.0,10.0,80,0.00,,,0.00,weatherlink.com 1.10,2013-03-06 19:07:00,
2013-03-06 14:22:00,33.3,28.0,30.22,NE,53,4.0,8.0,80,0.00,,,0.00,weatherlink.com 1.10,2013-03-06 19:22:00,
2013-03-06 14:38:00,33.2,28.0,30.23,WNW,291,1.0,12.0,82,0.00,,,0.00,weatherlink.com 1.10,2013-03-06 19:38:00,
2013-03-06 14:53:00,33.2,28.0,30.24,SW,222,1.0,10.0,82,0.00,,,0.00,weatherlink.com 1.10,2013-03-06 19:53:00,
2013-03-06 15:08:00,33.1,28.0,30.25,WNW,300,8.0,8.0,81,0.00,,,0.00,weatherlink.com 1.10,2013-03-06 20:08:00,
2013-03-06 15:23:00,33.1,29.0,30.25,SE,143,0.0,7.0,83,0.00,,,0.00,weatherlink.com 1.10,2013-03-06 20:23:00,
2013-03-06 15:38:00,33.1,29.0,30.26,West,269,0.0,7.0,84,0.00,,,0.00,weatherlink.com 1.10,2013-03-06 20:38:00,
2013-03-06 15:53:00,33.1,28.0,30.27,NW,305,2.0,9.0,82,0.00,,,0.00,weatherlink.com 1.10,2013-03-06 20:53:00,
2013-03-06 16:08:00,32.8,28.0,30.27,North,11,2.0,11.0,83,0.00,,,0.00,weatherlink.com 1.10,2013-03-06 21:08:00,
2013-03-06 16:23:00,32.9,29.0,30.28,NNE,15,2.0,7.0,84,0.00,,,0.00,weatherlink.com 1.10,2013-03-06 21:23:00,
2013-03-06 16:38:00,32.9,29.0,30.29,ESE,104,0.0,9.0,85,0.00,,,0.00,weatherlink.com 1.10,2013-03-06 21:38:00,
2013-03-06 16:53:00,32.8,29.0,30.29,NNE,18,3.0,6.0,85,0.00,,,0.00,weatherlink.com 1.10,2013-03-06 21:53:00,
2013-03-06 17:08:00,32.8,29.0,30.29,NE,41,2.0,5.0,86,0.00,,,0.00,weatherlink.com 1.10,2013-03-06 22:08:00,
2013-03-06 17:23:00,33.0,29.0,30.30,East,84,0.0,4.0,85,0.00,,,0.00,weatherlink.com 1.10,2013-03-06 22:23:00,
2013-03-06 17:38:00,32.7,29.0,30.30,NNW,330,2.0,4.0,85,0.00,,,0.00,weatherlink.com 1.10,2013-03-06 22:38:00,
2013-03-06 17:53:00,32.8,29.0,30.31,ESE,112,1.0,4.0,86,0.00,,,0.00,weatherlink.com 1.10,2013-03-06 22:53:00,
2013-03-06 18:08:00,32.8,29.0,30.32,SE,127,0.0,5.0,87,0.00,,,0.00,weatherlink.com 1.10,2013-03-06 23:08:00,
2013-03-06 18:23:00,32.6,29.0,30.32,NW,310,2.0,5.0,87,0.00,,,0.00,weatherlink.com 1.10,2013-03-06 23:23:00,
2013-03-06 18:38:00,32.7,29.0,30.32,NNE,29,2.0,6.0,87,0.00,,,0.00,weatherlink.com 1.10,2013-03-06 23:38:00,
2013-03-06 18:53:00,32.6,29.0,30.33,East,90,2.0,7.0,87,0.00,,,0.00,weatherlink.com 1.10,2013-03-06 23:53:00,
2013-03-06 19:08:00,32.5,29.0,30.33,WNW,288,0.0,3.0,88,0.00,,,0.00,weatherlink.com 1.10,2013-03-07 00:08:00,
2013-03-06 19:23:00,32.5,30.0,30.34,WSW,240,0.0,5.0,89,0.00,,,0.00,weatherlink.com 1.10,2013-03-07 00:23:00,
2013-03-06 19:38:00,32.0,29.0,30.34,NNW,331,2.0,10.0,90,0.00,,,0.00,weatherlink.com 1.10,2013-03-07 00:38:00,
2013-03-06 19:53:00,32.0,30.0,30.34,ESE,105,2.0,4.0,91,0.00,,,0.00,weatherlink.com 1.10,2013-03-07 00:53:00,
2013-03-06 20:08:00,31.8,30.0,30.35,East,84,2.0,6.0,92,0.00,,,0.00,weatherlink.com 1.10,2013-03-07 01:08:00,
2013-03-06 20:23:00,31.8,30.0,30.35,East,94,0.0,3.0,92,0.00,,,0.00,weatherlink.com 1.10,2013-03-07 01:23:00,
2013-03-06 20:38:00,31.8,30.0,30.35,NNW,342,1.0,4.0,92,0.00,,,0.00,weatherlink.com 1.10,2013-03-07 01:38:00,
2013-03-06 20:53:00,31.8,30.0,30.35,West,280,0.0,3.0,93,0.00,,,0.00,weatherlink.com 1.10,2013-03-07 01:53:00,
2013-03-06 21:08:00,31.7,30.0,30.35,ESE,103,0.0,3.0,93,0.00,,,0.00,weatherlink.com 1.10,2013-03-07 02:08:00,
2013-03-06 21:23:00,31.6,30.0,30.36,North,5,1.0,5.0,93,0.00,,,0.00,weatherlink.com 1.10,2013-03-07 02:23:00,
2013-03-06 21:38:00,31.6,30.0,30.36,NE,55,1.0,3.0,93,0.00,,,0.00,weatherlink.com 1.10,2013-03-07 02:38:00,
2013-03-06 21:53:00,31.9,30.0,30.36,North,1,0.0,2.0,93,0.00,,,0.00,weatherlink.com 1.10,2013-03-07 02:53:00,
2013-03-06 22:08:00,31.7,30.0,30.36,WNW,287,0.0,3.0,93,0.00,,,0.00,weatherlink.com 1.10,2013-03-07 03:08:00,
2013-03-06 22:23:00,31.5,30.0,30.36,NNW,347,1.0,4.0,93,0.00,,,0.00,weatherlink.com 1.10,2013-03-07 03:23:00,
2013-03-06 22:39:00,31.6,30.0,30.37,NNE,18,0.0,3.0,93,0.00,,,0.00,weatherlink.com 1.10,2013-03-07 03:39:00,
2013-03-06 22:53:00,31.6,30.0,30.36,NNE,30,0.0,1.0,94,0.00,,,0.00,weatherlink.com 1.10,2013-03-07 03:53:00,
2013-03-06 23:08:00,31.4,30.0,30.35,NNE,17,1.0,3.0,93,0.00,,,0.00,weatherlink.com 1.10,2013-03-07 04:08:00,
2013-03-06 23:23:00,31.6,30.0,30.36,NNE,15,1.0,4.0,94,0.00,,,0.00,weatherlink.com 1.10,2013-03-07 04:23:00,
2013-03-06 23:38:00,31.8,30.0,30.35,ENE,60,0.0,2.0,93,0.00,,,0.00,weatherlink.com 1.10,2013-03-07 04:38:00,
2013-03-06 23:53:00,32.3,31.0,30.34,East,91,0.0,3.0,93,0.00,,,0.00,weatherlink.com 1.10,2013-03-07 04:53:00,